Time;durP1;ratioP1;P1;durP2;ratioP2;P2;SDS_P1;SDS_P2;PMS_P1;PMS_P2;Temp;Humidity;BMP_temperature;BMP_pressure;BME280_temperature;BME280_humidity;BME280_pressure;Samples;Min_cycle;Max_cycle;Signal;HPM_P1;HPM_P2
2023/06/19 00:02:13;;;;;;;6.13;5.53;;;;;;;;;;5071846;28;20302;-91
2023/06/19 00:04:41;;;;;;;5.45;5.00;;;;;;;;;;5071011;28;20198;-90
2023/06/19 00:07:08;;;;;;;6.07;5.55;;;;;;;;;;5073895;28;20194;-90
2023/06/19 00:09:35;;;;;;;7.70;5.68;;;;;;;;;;5071345;28;20198;-90
2023/06/19 00:12:04;;;;;;;5.75;5.28;;;;;;;;;;5073214;28;20191;-91
2023/06/19 00:14:32;;;;;;;5.05;4.65;;;;;;;;;;5073085;28;20191;-90
2023/06/19 00:17:00;;;;;;;5.00;4.60;;;;;;;;;;5065516;28;20209;-91
2023/06/19 00:19:27;;;;;;;4.82;4.30;;;;;;;;;;5055044;28;20311;-90
2023/06/19 00:21:57;;;;;;;4.53;4.22;;;;;;;;;;5072293;28;20237;-90
2023/06/19 00:24:24;;;;;;;4.82;4.43;;;;;;;;;;5072486;28;20218;-91
2023/06/19 00:26:51;;;;;;;6.10;5.03;;;;;;;;;;5072405;28;20199;-91
2023/06/19 00:29:20;;;;;;;5.47;4.95;;;;;;;;;;5055467;28;20226;-90
2023/06/19 00:31:47;;;;;;;4.80;4.40;;;;;;;;;;5073335;28;20213;-90
2023/06/19 00:34:14;;;;;;;5.63;4.93;;;;;;;;;;5078391;28;20209;-90
2023/06/19 00:36:42;;;;;;;5.03;4.60;;;;;;;;;;5072631;28;20199;-91
2023/06/19 00:39:09;;;;;;;5.43;5.03;;;;;;;;;;5071535;28;20202;-90
2023/06/19 00:41:37;;;;;;;5.03;4.63;;;;;;;;;;5073402;28;20223;-90
2023/06/19 00:44:05;;;;;;;5.63;5.13;;;;;;;;;;5076001;28;20190;-90
2023/06/19 00:46:34;;;;;;;5.22;4.80;;;;;;;;;;5079630;28;20195;-90
2023/06/19 00:49:01;;;;;;;5.50;5.00;;;;;;;;;;5065212;28;20191;-91
2023/06/19 00:51:28;;;;;;;5.72;5.22;;;;;;;;;;5082646;28;20281;-90
2023/06/19 00:53:55;;;;;;;5.70;5.30;;;;;;;;;;5074121;28;20201;-91
2023/06/19 00:56:23;;;;;;;6.05;5.55;;;;;;;;;;5074634;28;20214;-91
2023/06/19 00:58:50;;;;;;;6.28;5.70;;;;;;;;;;5081933;28;20286;-90
2023/06/19 01:01:18;;;;;;;6.72;6.13;;;;;;;;;;5072515;28;20214;-90
2023/06/19 01:03:47;;;;;;;6.20;5.60;;;;;;;;;;5071328;28;20191;-90
2023/06/19 01:06:21;;;;;;;7.70;5.60;;;;;;;;;;5071214;28;20198;-91
2023/06/19 01:08:52;;;;;;;6.07;5.57;;;;;;;;;;5072313;28;20224;-91
2023/06/19 01:11:21;;;;;;;6.82;5.30;;;;;;;;;;5072067;28;20289;-89
2023/06/19 01:13:50;;;;;;;5.03;4.53;;;;;;;;;;5072985;28;20207;-90
2023/06/19 01:16:18;;;;;;;6.00;5.50;;;;;;;;;;5063925;28;20191;-90
2023/06/19 01:18:48;;;;;;;5.25;4.75;;;;;;;;;;5074788;28;20191;-89
2023/06/19 01:21:16;;;;;;;5.60;5.10;;;;;;;;;;5070862;28;20301;-90
2023/06/19 01:23:45;;;;;;;5.90;5.40;;;;;;;;;;5071781;28;20195;-91
2023/06/19 01:26:13;;;;;;;5.28;4.88;;;;;;;;;;5072907;28;20203;-91
2023/06/19 01:28:41;;;;;;;5.10;4.70;;;;;;;;;;5071021;28;20207;-91
2023/06/19 01:31:13;;;;;;;5.45;4.95;;;;;;;;;;5071540;28;20191;-91
2023/06/19 01:33:41;;;;;;;4.95;4.45;;;;;;;;;;5070658;28;20212;-91
2023/06/19 01:36:09;;;;;;;4.80;4.43;;;;;;;;;;5071622;28;20199;-90
2023/06/19 01:38:37;;;;;;;5.10;4.70;;;;;;;;;;5055032;28;20222;-90
2023/06/19 01:41:06;;;;;;;5.13;4.72;;;;;;;;;;5072579;28;20198;-90
2023/06/19 01:43:34;;;;;;;4.38;3.97;;;;;;;;;;5072231;28;20191;-91
2023/06/19 01:46:01;;;;;;;4.63;4.32;;;;;;;;;;5073593;28;20258;-91
2023/06/19 01:48:29;;;;;;;5.70;5.13;;;;;;;;;;5072430;28;20202;-90
2023/06/19 01:50:56;;;;;;;5.05;4.57;;;;;;;;;;5078773;28;20246;-91
2023/06/19 01:53:23;;;;;;;5.22;4.80;;;;;;;;;;5071593;28;20205;-91
2023/06/19 01:55:51;;;;;;;5.40;4.53;;;;;;;;;;5071091;28;20277;-90
2023/06/19 01:58:20;;;;;;;4.90;4.50;;;;;;;;;;5072570;28;20190;-91
2023/06/19 02:00:47;;;;;;;6.18;5.68;;;;;;;;;;5076759;28;20194;-91
2023/06/19 02:03:15;;;;;;;5.43;4.97;;;;;;;;;;5074037;28;20230;-91
2023/06/19 02:05:42;;;;;;;5.82;5.43;;;;;;;;;;5071646;28;20270;-91
2023/06/19 02:08:09;;;;;;;5.65;5.25;;;;;;;;;;5072853;28;20187;-91
2023/06/19 02:10:37;;;;;;;6.20;5.60;;;;;;;;;;5079596;28;20201;-91
2023/06/19 02:13:04;;;;;;;5.88;5.43;;;;;;;;;;5076849;28;20238;-90
2023/06/19 02:15:33;;;;;;;5.57;5.07;;;;;;;;;;5077497;28;20283;-90
2023/06/19 02:18:01;;;;;;;5.63;5.13;;;;;;;;;;5074990;28;20199;-90
2023/06/19 02:20:29;;;;;;;5.88;5.18;;;;;;;;;;5065157;28;20240;-91
2023/06/19 02:22:56;;;;;;;5.38;4.97;;;;;;;;;;5069441;28;20322;-91
2023/06/19 02:25:23;;;;;;;4.53;4.20;;;;;;;;;;5071677;28;20191;-91
2023/06/19 02:27:50;;;;;;;6.22;5.10;;;;;;;;;;5074052;28;20211;-91
2023/06/19 02:30:18;;;;;;;5.53;5.05;;;;;;;;;;5078034;28;20240;-91
2023/06/19 02:32:46;;;;;;;4.78;4.43;;;;;;;;;;5072569;28;20187;-91
2023/06/19 02:35:15;;;;;;;5.50;5.10;;;;;;;;;;5069187;28;20214;-90
2023/06/19 02:37:42;;;;;;;7.85;5.45;;;;;;;;;;5074297;28;20238;-91
2023/06/19 02:40:10;;;;;;;5.85;4.90;;;;;;;;;;5076389;28;20199;-90
2023/06/19 02:42:38;;;;;;;4.88;4.47;;;;;;;;;;5078204;28;20207;-90
2023/06/19 02:45:05;;;;;;;6.72;4.55;;;;;;;;;;5075468;28;20195;-91
2023/06/19 02:47:33;;;;;;;5.70;5.18;;;;;;;;;;5081651;28;20209;-91
2023/06/19 02:50:03;;;;;;;6.22;5.72;;;;;;;;;;5074212;28;20206;-90
2023/06/19 02:52:30;;;;;;;5.68;5.20;;;;;;;;;;5071775;28;20205;-91
2023/06/19 02:54:57;;;;;;;5.25;4.85;;;;;;;;;;5075940;28;20210;-92
2023/06/19 02:57:24;;;;;;;5.95;5.45;;;;;;;;;;5075091;28;20274;-91
2023/06/19 02:59:52;;;;;;;6.18;5.28;;;;;;;;;;5073952;28;20282;-91
2023/06/19 03:02:19;;;;;;;4.90;4.57;;;;;;;;;;5072565;28;20206;-91
2023/06/19 03:04:47;;;;;;;4.70;4.30;;;;;;;;;;5072169;28;20197;-92
2023/06/19 03:07:16;;;;;;;5.22;4.53;;;;;;;;;;5075401;28;20278;-91
2023/06/19 03:09:44;;;;;;;5.78;5.28;;;;;;;;;;5076499;28;20205;-90
2023/06/19 03:12:11;;;;;;;5.88;5.38;;;;;;;;;;5072485;28;20301;-90
2023/06/19 03:14:39;;;;;;;5.22;4.88;;;;;;;;;;5072515;28;20302;-89
2023/06/19 03:17:07;;;;;;;4.80;4.35;;;;;;;;;;5071588;28;20233;-91
2023/06/19 03:19:34;;;;;;;5.60;5.18;;;;;;;;;;5073992;28;20286;-90
2023/06/19 03:22:03;;;;;;;5.97;5.47;;;;;;;;;;5077173;28;20217;-91
2023/06/19 03:24:31;;;;;;;4.40;4.00;;;;;;;;;;5078299;28;20214;-91
2023/06/19 03:26:59;;;;;;;4.75;4.35;;;;;;;;;;5074087;28;20286;-90
2023/06/19 03:29:26;;;;;;;4.97;4.57;;;;;;;;;;5074930;28;20305;-91
2023/06/19 03:31:53;;;;;;;5.10;4.70;;;;;;;;;;5078808;28;20210;-89
2023/06/19 03:34:20;;;;;;;5.22;4.82;;;;;;;;;;5056174;28;20282;-91
2023/06/19 03:36:48;;;;;;;4.68;4.28;;;;;;;;;;5077528;28;20229;-91
2023/06/19 03:39:15;;;;;;;4.47;4.13;;;;;;;;;;5074064;28;20209;-90
2023/06/19 03:41:44;;;;;;;6.15;4.38;;;;;;;;;;5075267;28;20199;-91
2023/06/19 03:44:12;;;;;;;7.03;4.68;;;;;;;;;;5067658;28;20201;-91
2023/06/19 03:46:39;;;;;;;4.63;4.25;;;;;;;;;;5073021;28;20199;-90
2023/06/19 03:49:09;;;;;;;7.28;4.70;;;;;;;;;;5076839;28;20285;-91
2023/06/19 03:51:36;;;;;;;5.53;4.10;;;;;;;;;;5082556;28;20271;-91
2023/06/19 03:54:03;;;;;;;4.80;4.40;;;;;;;;;;5080271;28;20282;-90
2023/06/19 03:56:31;;;;;;;5.28;4.85;;;;;;;;;;5071246;28;20199;-91
2023/06/19 03:59:00;;;;;;;5.97;5.38;;;;;;;;;;5073682;28;20277;-90
2023/06/19 04:01:27;;;;;;;6.30;5.70;;;;;;;;;;5072426;28;20214;-90
2023/06/19 04:03:54;;;;;;;5.75;5.15;;;;;;;;;;5074641;28;20301;-90
2023/06/19 04:06:21;;;;;;;4.88;4.03;;;;;;;;;;5077650;28;20258;-91
2023/06/19 04:08:50;;;;;;;6.70;6.00;;;;;;;;;;5076262;28;20202;-90
2023/06/19 04:11:17;;;;;;;6.25;5.72;;;;;;;;;;5073138;28;20191;-89
2023/06/19 04:13:44;;;;;;;7.15;6.45;;;;;;;;;;5076341;28;20297;-90
2023/06/19 04:16:13;;;;;;;5.70;5.20;;;;;;;;;;5073111;28;20198;-91
2023/06/19 04:18:40;;;;;;;7.20;6.55;;;;;;;;;;5072614;28;20278;-90
2023/06/19 04:21:08;;;;;;;6.40;5.90;;;;;;;;;;5074806;28;20205;-90
2023/06/19 04:23:35;;;;;;;5.82;5.32;;;;;;;;;;5073483;28;20221;-90
2023/06/19 04:26:02;;;;;;;6.25;5.60;;;;;;;;;;5073076;28;20293;-90
2023/06/19 04:28:29;;;;;;;4.97;4.57;;;;;;;;;;5071483;28;20201;-89
2023/06/19 04:31:00;;;;;;;5.70;5.20;;;;;;;;;;5076225;28;20305;-90
2023/06/19 04:33:29;;;;;;;4.45;4.05;;;;;;;;;;5071105;28;20206;-91
2023/06/19 04:35:57;;;;;;;6.15;5.65;;;;;;;;;;5070160;28;20206;-90
2023/06/19 04:38:24;;;;;;;4.93;4.43;;;;;;;;;;5065882;28;20197;-90
2023/06/19 04:40:52;;;;;;;6.10;4.35;;;;;;;;;;5070381;28;20282;-89
2023/06/19 04:43:19;;;;;;;5.38;4.93;;;;;;;;;;5069772;28;20226;-96
2023/06/19 04:45:46;;;;;;;5.20;4.32;;;;;;;;;;5069346;28;20205;-94
2023/06/19 04:48:14;;;;;;;5.15;4.65;;;;;;;;;;5069831;28;20210;-95
2023/06/19 04:50:43;;;;;;;5.18;4.50;;;;;;;;;;5060950;28;20213;-94
2023/06/19 04:53:11;;;;;;;6.68;5.80;;;;;;;;;;5077614;28;20221;-95
2023/06/19 04:55:39;;;;;;;4.80;4.40;;;;;;;;;;5070999;28;20213;-94
2023/06/19 04:58:06;;;;;;;6.10;5.50;;;;;;;;;;5072023;28;20285;-94
2023/06/19 05:00:34;;;;;;;5.20;4.43;;;;;;;;;;5078894;28;20256;-94
2023/06/19 05:03:02;;;;;;;5.15;4.75;;;;;;;;;;5073285;28;20307;-90
2023/06/19 05:05:29;;;;;;;8.60;6.40;;;;;;;;;;5083072;28;20209;-95
2023/06/19 05:07:58;;;;;;;5.63;5.13;;;;;;;;;;5071288;28;20194;-93
2023/06/19 05:10:26;;;;;;;5.88;4.80;;;;;;;;;;5073921;28;20205;-94
2023/06/19 05:12:53;;;;;;;5.28;4.82;;;;;;;;;;5071786;28;20215;-93
2023/06/19 05:15:21;;;;;;;10.65;6.13;;;;;;;;;;5070688;28;20213;-95
2023/06/19 05:17:48;;;;;;;5.15;4.72;;;;;;;;;;5073353;28;20234;-94
2023/06/19 05:20:15;;;;;;;7.97;6.82;;;;;;;;;;5062288;28;20301;-94
2023/06/19 05:22:43;;;;;;;7.50;6.30;;;;;;;;;;5069602;28;20229;-93
2023/06/19 05:25:15;;;;;;;7.13;6.50;;;;;;;;;;5066716;28;20198;-93
2023/06/19 05:27:51;;;;;;;9.02;4.75;;;;;;;;;;5074850;28;20256;-91
2023/06/19 05:30:20;;;;;;;6.18;5.28;;;;;;;;;;5078993;28;20238;-92
2023/06/19 05:32:49;;;;;;;5.32;4.60;;;;;;;;;;5081032;28;20241;-90
2023/06/19 05:35:21;;;;;;;5.13;4.63;;;;;;;;;;5082917;28;20198;-95
2023/06/19 05:37:48;;;;;;;5.45;4.95;;;;;;;;;;5071390;28;20194;-93
2023/06/19 05:40:17;;;;;;;5.45;4.95;;;;;;;;;;5075478;28;20202;-93
2023/06/19 05:42:44;;;;;;;5.47;4.97;;;;;;;;;;5072606;28;20214;-93
2023/06/19 05:45:13;;;;;;;5.15;4.75;;;;;;;;;;5072376;28;20311;-93
2023/06/19 05:47:40;;;;;;;6.70;5.13;;;;;;;;;;5080054;28;20279;-91
2023/06/19 05:50:13;;;;;;;5.18;4.78;;;;;;;;;;5054993;28;20191;-90
2023/06/19 05:52:45;;;;;;;5.80;5.30;;;;;;;;;;5056782;28;20226;-90
2023/06/19 05:55:24;;;;;;;5.43;4.68;;;;;;;;;;5073091;28;20225;-91
2023/06/19 05:57:54;;;;;;;8.77;5.90;;;;;;;;;;5081205;28;20317;-90
2023/06/19 06:00:23;;;;;;;5.53;4.50;;;;;;;;;;5076314;28;20206;-91
2023/06/19 06:02:51;;;;;;;5.40;4.88;;;;;;;;;;5068134;28;20210;-91
2023/06/19 06:05:28;;;;;;;6.70;5.13;;;;;;;;;;5071819;28;20241;-91
2023/06/19 06:07:55;;;;;;;6.72;6.10;;;;;;;;;;5074527;28;20191;-90
2023/06/19 06:10:25;;;;;;;5.90;5.30;;;;;;;;;;5078121;28;20198;-91
2023/06/19 06:13:01;;;;;;;7.55;5.68;;;;;;;;;;5075160;28;20269;-90
2023/06/19 06:15:30;;;;;;;7.50;5.80;;;;;;;;;;5057936;28;20197;-90
2023/06/19 06:17:57;;;;;;;6.88;4.80;;;;;;;;;;5081913;28;20202;-90
2023/06/19 06:20:28;;;;;;;4.95;4.32;;;;;;;;;;5060538;28;20199;-90
2023/06/19 06:23:08;;;;;;;6.25;5.75;;;;;;;;;;5077552;28;20221;-91
2023/06/19 06:25:41;;;;;;;5.35;4.85;;;;;;;;;;5082349;28;20218;-91
2023/06/19 06:28:12;;;;;;;6.05;5.28;;;;;;;;;;5067114;28;20198;-90
2023/06/19 06:30:43;;;;;;;6.03;5.50;;;;;;;;;;5078001;28;20245;-90
2023/06/19 06:33:15;;;;;;;7.40;5.90;;;;;;;;;;5076529;28;20292;-90
2023/06/19 06:35:44;;;;;;;9.25;5.70;;;;;;;;;;5060284;28;20191;-91
2023/06/19 06:38:12;;;;;;;5.93;4.88;;;;;;;;;;5080379;28;20286;-92
2023/06/19 06:40:44;;;;;;;7.72;5.40;;;;;;;;;;5078609;28;20207;-88
2023/06/19 06:43:11;;;;;;;5.28;4.88;;;;;;;;;;5073294;28;20213;-89
2023/06/19 06:45:39;;;;;;;4.95;4.53;;;;;;;;;;5078284;28;20207;-91
2023/06/19 06:48:08;;;;;;;4.63;4.10;;;;;;;;;;5073667;28;20191;-91
2023/06/19 06:50:38;;;;;;;4.43;4.03;;;;;;;;;;5080134;28;20203;-91
2023/06/19 06:53:06;;;;;;;4.13;3.83;;;;;;;;;;5066677;28;20192;-91
2023/06/19 06:55:34;;;;;;;4.72;3.80;;;;;;;;;;5069190;28;20197;-91
2023/06/19 06:58:05;;;;;;;4.10;3.70;;;;;;;;;;5081638;28;20198;-90
2023/06/19 07:00:33;;;;;;;3.28;2.97;;;;;;;;;;5070046;28;20211;-90
2023/06/19 07:03:03;;;;;;;2.75;2.55;;;;;;;;;;5059266;28;20207;-91
2023/06/19 07:05:32;;;;;;;3.05;2.80;;;;;;;;;;5062396;28;20278;-92
2023/06/19 07:08:02;;;;;;;4.20;2.72;;;;;;;;;;5052703;28;20195;-90
2023/06/19 07:10:32;;;;;;;5.90;3.10;;;;;;;;;;5040411;28;20195;-91
2023/06/19 07:13:01;;;;;;;5.88;3.00;;;;;;;;;;5078010;28;20201;-91
2023/06/19 07:15:37;;;;;;;2.70;2.50;;;;;;;;;;5070418;28;20206;-92
2023/06/19 07:18:08;;;;;;;2.78;2.50;;;;;;;;;;5072847;28;20194;-93
2023/06/19 07:20:37;;;;;;;3.33;2.53;;;;;;;;;;5072587;28;20210;-90
2023/06/19 07:23:05;;;;;;;3.38;2.50;;;;;;;;;;5058209;28;20207;-92
2023/06/19 07:25:34;;;;;;;2.50;2.40;;;;;;;;;;5058254;28;20228;-92
2023/06/19 07:28:04;;;;;;;2.88;2.50;;;;;;;;;;5075160;28;20207;-93
2023/06/19 07:30:34;;;;;;;2.90;2.70;;;;;;;;;;5060807;28;20230;-92
2023/06/19 07:33:03;;;;;;;3.50;2.67;;;;;;;;;;5074707;28;20290;-92
2023/06/19 07:35:35;;;;;;;3.03;2.83;;;;;;;;;;5073017;28;20191;-91
2023/06/19 07:38:03;;;;;;;2.60;2.50;;;;;;;;;;5074791;28;20250;-93
2023/06/19 07:40:31;;;;;;;3.55;2.72;;;;;;;;;;5054317;28;20289;-93
2023/06/19 07:42:59;;;;;;;2.92;2.63;;;;;;;;;;5066044;28;20191;-92
2023/06/19 07:45:28;;;;;;;3.00;2.70;;;;;;;;;;5068113;28;20194;-92
2023/06/19 07:47:57;;;;;;;3.92;2.67;;;;;;;;;;5071409;28;20195;-90
2023/06/19 07:50:25;;;;;;;2.65;2.45;;;;;;;;;;5069142;28;20200;-92
2023/06/19 07:52:53;;;;;;;2.60;2.30;;;;;;;;;;5071006;28;20213;-93
2023/06/19 07:55:22;;;;;;;2.78;2.30;;;;;;;;;;5055955;28;20195;-92
2023/06/19 07:57:49;;;;;;;3.22;2.83;;;;;;;;;;5074850;28;20207;-93
2023/06/19 08:00:17;;;;;;;3.03;2.70;;;;;;;;;;5073563;28;20218;-93
2023/06/19 08:02:44;;;;;;;3.17;2.58;;;;;;;;;;5073429;28;20289;-93
2023/06/19 08:05:13;;;;;;;4.57;2.92;;;;;;;;;;5072226;28;20301;-92
2023/06/19 08:07:40;;;;;;;3.17;2.92;;;;;;;;;;5073997;28;20226;-91
2023/06/19 08:10:08;;;;;;;2.97;2.40;;;;;;;;;;5074904;28;20222;-91
2023/06/19 08:12:39;;;;;;;3.10;2.78;;;;;;;;;;5084285;28;20209;-92
2023/06/19 08:15:09;;;;;;;3.00;2.63;;;;;;;;;;5075763;28;20202;-92
2023/06/19 08:17:36;;;;;;;2.70;2.50;;;;;;;;;;5076397;28;20278;-92
2023/06/19 08:20:05;;;;;;;2.50;2.40;;;;;;;;;;5072513;28;20285;-91
2023/06/19 08:22:34;;;;;;;3.28;2.65;;;;;;;;;;5068910;28;20193;-92
2023/06/19 08:25:09;;;;;;;3.03;2.78;;;;;;;;;;5070265;28;20219;-93
2023/06/19 08:27:40;;;;;;;5.20;3.17;;;;;;;;;;5070273;28;20212;-90
2023/06/19 08:30:08;;;;;;;3.00;2.80;;;;;;;;;;5065410;28;20279;-92
2023/06/19 08:32:35;;;;;;;3.13;2.80;;;;;;;;;;5068722;28;20213;-91
2023/06/19 08:35:02;;;;;;;3.55;2.90;;;;;;;;;;5069331;28;20202;-94
2023/06/19 08:37:30;;;;;;;4.68;2.40;;;;;;;;;;5072520;28;20283;-93
2023/06/19 08:39:59;;;;;;;4.13;2.88;;;;;;;;;;5071127;28;20206;-91
2023/06/19 08:42:26;;;;;;;3.25;3.05;;;;;;;;;;5073510;28;20202;-93
2023/06/19 08:44:54;;;;;;;3.15;2.85;;;;;;;;;;5072771;28;20223;-91
2023/06/19 08:47:21;;;;;;;3.30;3.00;;;;;;;;;;5068001;28;20197;-92
2023/06/19 08:49:48;;;;;;;3.50;3.20;;;;;;;;;;5069657;28;20217;-91
2023/06/19 08:52:15;;;;;;;3.30;3.00;;;;;;;;;;5069745;28;20195;-93
2023/06/19 08:54:45;;;;;;;2.65;2.47;;;;;;;;;;5067418;28;20207;-92
2023/06/19 08:57:13;;;;;;;3.10;2.80;;;;;;;;;;5057830;28;20306;-92
2023/06/19 08:59:41;;;;;;;3.03;2.65;;;;;;;;;;5080016;28;20221;-94
2023/06/19 09:02:08;;;;;;;3.50;3.20;;;;;;;;;;5068871;28;20222;-90
2023/06/19 09:04:36;;;;;;;3.38;2.63;;;;;;;;;;5069825;28;20226;-91
2023/06/19 09:07:05;;;;;;;2.95;2.75;;;;;;;;;;5068652;28;20206;-89
2023/06/19 09:09:33;;;;;;;2.55;2.40;;;;;;;;;;5071034;28;20225;-91
2023/06/19 09:12:01;;;;;;;3.25;2.95;;;;;;;;;;5071163;28;20278;-92
2023/06/19 09:14:36;;;;;;;3.25;2.58;;;;;;;;;;5064485;28;20191;-92
2023/06/19 09:17:06;;;;;;;2.40;2.20;;;;;;;;;;5068442;28;20193;-93
2023/06/19 09:19:40;;;;;;;2.38;2.17;;;;;;;;;;5049184;28;20190;-91
2023/06/19 09:22:10;;;;;;;2.13;2.03;;;;;;;;;;5072632;28;20195;-93
2023/06/19 09:24:41;;;;;;;2.30;2.20;;;;;;;;;;5070394;28;20207;-91
2023/06/19 09:27:18;;;;;;;2.40;2.30;;;;;;;;;;5064978;28;20198;-92
2023/06/19 09:30:03;;;;;;;2.17;2.08;;;;;;;;;;5069611;28;20248;-92
2023/06/19 09:32:40;;;;;;;2.22;1.95;;;;;;;;;;5067555;28;20218;-92
2023/06/19 09:35:07;;;;;;;2.33;2.15;;;;;;;;;;5062815;28;20195;-90
2023/06/19 09:37:35;;;;;;;2.25;2.10;;;;;;;;;;5073145;28;20206;-91
2023/06/19 09:40:09;;;;;;;2.40;2.15;;;;;;;;;;5070536;28;20201;-93
2023/06/19 09:42:42;;;;;;;2.50;2.30;;;;;;;;;;5070243;28;20201;-92
2023/06/19 09:45:20;;;;;;;2.78;2.55;;;;;;;;;;5077228;28;20271;-92
2023/06/19 09:50:42;;;;;;;3.45;2.55;;;;;;;;;;5073296;28;20210;-93
2023/06/19 09:53:17;;;;;;;2.85;2.50;;;;;;;;;;5069954;28;20201;-92
2023/06/19 09:55:44;;;;;;;2.70;2.50;;;;;;;;;;5073290;28;20203;-94
2023/06/19 09:58:12;;;;;;;2.60;2.40;;;;;;;;;;5075649;28;20293;-92
2023/06/19 10:00:41;;;;;;;3.13;2.80;;;;;;;;;;5058188;28;20210;-89
2023/06/19 10:03:13;;;;;;;3.42;2.63;;;;;;;;;;5080307;28;20198;-93
2023/06/19 10:05:41;;;;;;;2.83;2.50;;;;;;;;;;5077818;28;20230;-91
2023/06/19 10:08:08;;;;;;;3.45;3.13;;;;;;;;;;5065047;28;20191;-92
2023/06/19 10:10:36;;;;;;;2.28;2.17;;;;;;;;;;5084515;28;20205;-91
2023/06/19 10:13:13;;;;;;;4.65;2.58;;;;;;;;;;5074844;28;20213;-92
2023/06/19 10:15:43;;;;;;;2.72;2.53;;;;;;;;;;5075557;28;20234;-92
2023/06/19 10:18:16;;;;;;;2.88;2.67;;;;;;;;;;5074965;28;20202;-91
2023/06/19 10:20:43;;;;;;;2.80;2.58;;;;;;;;;;5067099;28;20191;-91
2023/06/19 10:23:12;;;;;;;3.00;2.80;;;;;;;;;;5047656;28;20198;-91
2023/06/19 10:25:40;;;;;;;3.70;2.88;;;;;;;;;;5072363;28;20268;-89
2023/06/19 10:28:17;;;;;;;2.97;2.55;;;;;;;;;;5073763;28;20209;-90
2023/06/19 10:30:46;;;;;;;2.80;2.50;;;;;;;;;;5073618;28;20302;-89
2023/06/19 10:33:14;;;;;;;3.78;2.78;;;;;;;;;;5063169;28;20219;-89
2023/06/19 10:35:41;;;;;;;3.03;2.67;;;;;;;;;;5072172;28;20206;-89
2023/06/19 10:38:09;;;;;;;2.72;2.50;;;;;;;;;;5069520;28;20207;-89
2023/06/19 10:40:39;;;;;;;4.10;2.72;;;;;;;;;;5053391;28;20206;-89
2023/06/19 10:43:11;;;;;;;2.60;2.40;;;;;;;;;;5075319;28;20195;-89
2023/06/19 10:45:38;;;;;;;2.28;2.17;;;;;;;;;;5069524;28;20314;-89
2023/06/19 10:48:08;;;;;;;3.28;2.40;;;;;;;;;;5068012;28;20195;-89
2023/06/19 10:50:36;;;;;;;2.70;2.50;;;;;;;;;;5060159;28;20226;-88
2023/06/19 10:53:03;;;;;;;4.45;2.45;;;;;;;;;;5072326;28;20229;-89
2023/06/19 10:55:31;;;;;;;2.97;2.70;;;;;;;;;;5075082;28;20201;-89
2023/06/19 10:57:58;;;;;;;2.20;2.10;;;;;;;;;;5078674;28;20202;-88
2023/06/19 11:00:26;;;;;;;2.53;2.33;;;;;;;;;;5077157;28;20204;-89
2023/06/19 11:02:53;;;;;;;3.78;2.10;;;;;;;;;;5082156;28;20211;-89
2023/06/19 11:05:23;;;;;;;2.55;2.35;;;;;;;;;;5077388;28;20223;-89
2023/06/19 11:07:53;;;;;;;2.35;2.00;;;;;;;;;;5073875;28;20203;-89
2023/06/19 11:10:22;;;;;;;2.30;2.10;;;;;;;;;;5072671;28;20210;-89
2023/06/19 11:12:49;;;;;;;2.50;2.30;;;;;;;;;;5069506;28;20206;-90
2023/06/19 11:15:17;;;;;;;2.42;2.05;;;;;;;;;;5048468;28;20202;-92
2023/06/19 11:17:44;;;;;;;3.75;2.33;;;;;;;;;;5073610;28;20199;-91
2023/06/19 11:20:13;;;;;;;2.28;2.08;;;;;;;;;;5072086;28;20190;-92
2023/06/19 11:22:42;;;;;;;2.45;2.10;;;;;;;;;;5056931;28;20198;-92
2023/06/19 11:25:11;;;;;;;3.05;2.30;;;;;;;;;;5071785;28;20310;-92
2023/06/19 11:27:39;;;;;;;3.67;2.22;;;;;;;;;;5072906;28;20274;-91
2023/06/19 11:30:08;;;;;;;3.33;2.38;;;;;;;;;;5072503;28;20215;-90
2023/06/19 11:32:40;;;;;;;3.22;2.65;;;;;;;;;;5074192;28;20606;-93
2023/06/19 11:35:14;;;;;;;2.20;2.10;;;;;;;;;;5074642;28;20211;-94
2023/06/19 11:37:44;;;;;;;2.42;2.22;;;;;;;;;;5073334;28;20217;-93
2023/06/19 11:40:17;;;;;;;2.50;2.30;;;;;;;;;;5070602;28;20202;-92
2023/06/19 11:42:55;;;;;;;2.58;2.38;;;;;;;;;;5077254;28;20253;-92
2023/06/19 11:45:26;;;;;;;2.35;2.15;;;;;;;;;;5073492;28;20241;-91
2023/06/19 11:47:57;;;;;;;2.15;2.05;;;;;;;;;;5054737;28;20238;-91
2023/06/19 11:50:34;;;;;;;2.55;2.35;;;;;;;;;;5074104;28;20195;-92
2023/06/19 11:53:06;;;;;;;4.68;2.28;;;;;;;;;;5052804;28;20195;-89
2023/06/19 11:55:34;;;;;;;2.30;2.10;;;;;;;;;;5075532;28;20213;-89
2023/06/19 11:58:06;;;;;;;2.40;2.20;;;;;;;;;;5072454;28;20325;-89
2023/06/19 12:00:38;;;;;;;2.63;2.25;;;;;;;;;;5070874;28;20199;-89
2023/06/19 12:03:06;;;;;;;3.63;2.33;;;;;;;;;;5073729;28;20187;-91
2023/06/19 12:05:35;;;;;;;3.35;2.40;;;;;;;;;;5072588;28;20250;-90
2023/06/19 12:08:04;;;;;;;4.95;1.98;;;;;;;;;;5072507;28;20194;-91
2023/06/19 12:10:35;;;;;;;2.40;2.10;;;;;;;;;;5073343;28;20205;-91
2023/06/19 12:13:07;;;;;;;2.08;1.98;;;;;;;;;;5057998;28;20281;-91
2023/06/19 12:15:36;;;;;;;2.30;2.10;;;;;;;;;;5063137;28;20331;-91
2023/06/19 12:18:06;;;;;;;3.28;2.30;;;;;;;;;;5071562;28;20211;-90
2023/06/19 12:20:35;;;;;;;3.05;2.15;;;;;;;;;;5072168;28;20267;-93
2023/06/19 12:23:05;;;;;;;4.38;2.30;;;;;;;;;;5074225;28;20282;-93
2023/06/19 12:25:37;;;;;;;2.13;2.03;;;;;;;;;;5073867;28;20246;-92
2023/06/19 12:28:08;;;;;;;2.20;2.00;;;;;;;;;;5073946;28;20199;-92
2023/06/19 12:30:44;;;;;;;4.55;2.05;;;;;;;;;;5071462;28;20234;-90
2023/06/19 12:33:12;;;;;;;2.40;1.85;;;;;;;;;;5061929;28;20205;-92
2023/06/19 12:35:46;;;;;;;2.22;2.03;;;;;;;;;;5081548;28;20215;-91
2023/06/19 12:38:14;;;;;;;11.52;2.30;;;;;;;;;;5067892;28;20200;-91
2023/06/19 12:40:45;;;;;;;3.88;2.17;;;;;;;;;;5073770;28;20202;-92
2023/06/19 12:43:13;;;;;;;2.28;2.17;;;;;;;;;;5071973;28;20205;-91
2023/06/19 12:45:41;;;;;;;2.28;2.10;;;;;;;;;;5071170;28;20305;-91
2023/06/19 12:48:08;;;;;;;2.33;1.85;;;;;;;;;;5070580;28;20283;-91
2023/06/19 12:50:35;;;;;;;2.40;2.20;;;;;;;;;;5050903;28;20209;-91
2023/06/19 12:53:05;;;;;;;1.90;1.80;;;;;;;;;;5069829;28;20297;-91
2023/06/19 12:55:36;;;;;;;2.10;2.00;;;;;;;;;;5070222;28;20195;-92
2023/06/19 12:58:07;;;;;;;2.00;1.90;;;;;;;;;;5066893;28;20193;-92
2023/06/19 13:00:38;;;;;;;2.20;2.00;;;;;;;;;;5080922;28;20241;-93
2023/06/19 13:03:07;;;;;;;2.65;2.00;;;;;;;;;;5071740;28;20222;-92
2023/06/19 13:05:34;;;;;;;2.42;2.00;;;;;;;;;;5054099;28;20219;-92
2023/06/19 13:08:02;;;;;;;2.60;2.40;;;;;;;;;;5067354;28;20198;-91
2023/06/19 13:10:29;;;;;;;2.35;2.15;;;;;;;;;;5072654;28;20203;-92
2023/06/19 13:12:58;;;;;;;3.65;2.10;;;;;;;;;;5054435;28;20286;-95
2023/06/19 13:15:28;;;;;;;2.42;2.03;;;;;;;;;;5075585;28;20247;-92
2023/06/19 13:17:55;;;;;;;2.40;2.08;;;;;;;;;;5075581;28;20202;-92
2023/06/19 13:20:23;;;;;;;2.17;1.98;;;;;;;;;;5072569;28;20206;-90
2023/06/19 13:22:50;;;;;;;2.17;2.08;;;;;;;;;;5074292;28;20290;-92
2023/06/19 13:25:17;;;;;;;1.92;1.83;;;;;;;;;;5054712;28;20215;-92
2023/06/19 13:27:44;;;;;;;2.22;2.03;;;;;;;;;;5073744;28;20222;-92
2023/06/19 13:30:12;;;;;;;5.22;2.03;;;;;;;;;;5071508;28;20305;-91
2023/06/19 13:32:42;;;;;;;2.00;1.90;;;;;;;;;;5072610;28;20209;-90
2023/06/19 13:35:10;;;;;;;2.28;2.17;;;;;;;;;;5073105;28;20205;-92
2023/06/19 13:37:39;;;;;;;2.22;1.80;;;;;;;;;;5068536;28;20281;-91
2023/06/19 13:40:09;;;;;;;2.13;1.92;;;;;;;;;;5064904;28;20206;-91
2023/06/19 13:42:36;;;;;;;3.08;2.30;;;;;;;;;;5065837;28;20210;-91
2023/06/19 13:45:07;;;;;;;2.75;2.28;;;;;;;;;;5067558;28;20198;-92
2023/06/19 13:47:34;;;;;;;2.20;2.03;;;;;;;;;;5070452;28;20199;-93
2023/06/19 13:50:04;;;;;;;2.63;2.20;;;;;;;;;;5053624;28;20226;-93
2023/06/19 13:52:33;;;;;;;2.30;2.10;;;;;;;;;;5070729;28;20201;-92
2023/06/19 13:55:02;;;;;;;2.35;2.15;;;;;;;;;;5080420;28;20221;-91
2023/06/19 13:57:30;;;;;;;2.13;2.03;;;;;;;;;;5071639;28;20209;-89
2023/06/19 13:59:59;;;;;;;4.07;2.22;;;;;;;;;;5054349;28;20203;-90
2023/06/19 14:02:26;;;;;;;2.30;2.10;;;;;;;;;;5066606;28;20218;-90
2023/06/19 14:04:54;;;;;;;2.22;2.10;;;;;;;;;;5072504;28;20268;-90
2023/06/19 14:07:24;;;;;;;2.20;2.10;;;;;;;;;;5076788;28;20218;-89
2023/06/19 14:09:53;;;;;;;2.33;2.00;;;;;;;;;;5070888;28;20248;-89
2023/06/19 14:12:22;;;;;;;2.13;2.03;;;;;;;;;;5067172;28;20213;-91
2023/06/19 14:14:51;;;;;;;2.15;1.90;;;;;;;;;;5069108;28;20202;-89
2023/06/19 14:17:20;;;;;;;4.30;2.17;;;;;;;;;;5070389;28;20203;-90
2023/06/19 14:19:48;;;;;;;3.33;1.90;;;;;;;;;;5077351;28;20198;-89
2023/06/19 14:22:19;;;;;;;2.33;2.13;;;;;;;;;;5072785;28;20191;-89
2023/06/19 14:24:53;;;;;;;2.97;2.15;;;;;;;;;;5075389;28;20214;-89
2023/06/19 14:27:24;;;;;;;3.30;2.13;;;;;;;;;;5060722;28;20217;-90
2023/06/19 14:29:53;;;;;;;2.45;2.00;;;;;;;;;;5075328;28;20230;-90
2023/06/19 14:32:21;;;;;;;2.25;2.10;;;;;;;;;;5057729;28;20276;-91
2023/06/19 14:34:50;;;;;;;2.40;2.20;;;;;;;;;;5073339;28;20198;-90
2023/06/19 14:37:20;;;;;;;2.38;2.10;;;;;;;;;;5064097;28;20198;-90
2023/06/19 14:39:54;;;;;;;2.83;2.10;;;;;;;;;;5073928;28;20210;-91
2023/06/19 14:42:25;;;;;;;3.08;2.22;;;;;;;;;;5076085;28;20272;-89
2023/06/19 14:44:54;;;;;;;2.22;2.03;;;;;;;;;;5075722;28;20202;-90
2023/06/19 14:47:24;;;;;;;2.17;2.00;;;;;;;;;;5062134;28;20300;-90
2023/06/19 14:49:52;;;;;;;2.67;2.40;;;;;;;;;;5085725;28;20209;-91
2023/06/19 14:52:21;;;;;;;2.13;2.03;;;;;;;;;;5075303;28;20199;-91
2023/06/19 14:54:51;;;;;;;2.80;2.30;;;;;;;;;;5070946;28;20213;-92
2023/06/19 15:00:05;;;;;;;2.25;2.10;;;;;;;;;;5072074;28;20195;-93